createdAt,value
2024-03-16T00:00:44.271Z,15.82
2024-03-16T00:03:11.415Z,17.95
2024-03-16T00:05:38.741Z,14.32
2024-03-16T00:08:06.306Z,14.25
2024-03-16T00:10:33.057Z,14.00
2024-03-16T00:12:59.739Z,14.43
2024-03-16T00:15:26.621Z,15.15
2024-03-16T00:17:54.054Z,13.68
2024-03-16T00:20:20.747Z,13.45
2024-03-16T00:22:47.444Z,14.20
2024-03-16T00:25:15.712Z,14.38
2024-03-16T00:27:42.571Z,11.80
2024-03-16T00:30:11.247Z,14.35
2024-03-16T00:32:39.487Z,14.52
2024-03-16T00:35:06.271Z,14.05
2024-03-16T00:37:33.311Z,14.50
2024-03-16T00:39:59.916Z,13.00
2024-03-16T00:42:26.927Z,12.70
2024-03-16T00:44:53.853Z,12.23
2024-03-16T00:47:20.490Z,13.32
2024-03-16T00:49:47.023Z,12.57
2024-03-16T00:52:13.670Z,12.57
2024-03-16T00:54:40.352Z,11.65
2024-03-16T00:57:06.928Z,11.98
2024-03-16T00:59:33.485Z,13.18
2024-03-16T01:02:00.263Z,11.85
2024-03-16T01:04:28.404Z,11.18
2024-03-16T01:06:55.191Z,11.65
2024-03-16T01:09:21.910Z,12.20
2024-03-16T01:11:48.692Z,14.80
2024-03-16T01:14:15.392Z,15.15
2024-03-16T01:16:42.431Z,13.02
2024-03-16T01:19:09.018Z,13.13
2024-03-16T01:21:36.065Z,13.85
2024-03-16T01:24:03.866Z,12.18
2024-03-16T01:26:30.418Z,14.63
2024-03-16T01:28:57.043Z,12.38
2024-03-16T01:31:23.675Z,12.50
2024-03-16T01:33:52.186Z,11.93
2024-03-16T01:36:19.043Z,15.52
2024-03-16T01:38:46.785Z,14.65
2024-03-16T01:41:13.956Z,14.48
2024-03-16T01:43:40.524Z,15.60
2024-03-16T01:46:09.593Z,14.65
2024-03-16T01:48:36.300Z,14.45
2024-03-16T01:51:04.863Z,13.52
2024-03-16T01:53:33.728Z,13.98
2024-03-16T01:56:00.294Z,16.25
2024-03-16T01:58:26.872Z,13.60
2024-03-16T02:00:54.501Z,12.80
2024-03-16T02:03:21.225Z,14.52
2024-03-16T02:05:47.871Z,15.10
2024-03-16T02:08:14.473Z,15.55
2024-03-16T02:10:41.070Z,13.60
2024-03-16T02:13:07.944Z,15.95
2024-03-16T02:15:34.689Z,15.40
2024-03-16T02:18:01.341Z,15.15
2024-03-16T02:20:27.964Z,13.80
2024-03-16T02:22:54.592Z,14.30
2024-03-16T02:25:21.302Z,17.08
2024-03-16T02:27:48.472Z,16.85
2024-03-16T02:30:16.280Z,14.95
2024-03-16T02:32:42.932Z,17.58
2024-03-16T02:35:10.299Z,17.63
2024-03-16T02:37:37.449Z,15.20
2024-03-16T02:40:05.214Z,17.38
2024-03-16T02:42:32.076Z,17.45
2024-03-16T02:44:58.698Z,18.88
2024-03-16T02:47:25.465Z,16.48
2024-03-16T02:49:52.222Z,16.20
2024-03-16T02:52:18.936Z,17.52
2024-03-16T02:54:45.526Z,17.65
2024-03-16T02:57:12.089Z,16.50
2024-03-16T02:59:38.681Z,15.50
2024-03-16T03:02:06.740Z,16.35
2024-03-16T03:04:33.378Z,17.48
2024-03-16T03:07:00.001Z,17.60
2024-03-16T03:09:27.332Z,17.42
2024-03-16T03:11:54.022Z,17.52
2024-03-16T03:14:20.620Z,17.52
2024-03-16T03:16:47.165Z,18.27
2024-03-16T03:19:13.984Z,18.45
2024-03-16T03:21:40.754Z,15.27
2024-03-16T03:24:07.377Z,18.08
2024-03-16T03:26:34.238Z,18.02
2024-03-16T03:29:01.129Z,16.83
2024-03-16T03:31:27.741Z,14.70
2024-03-16T03:33:54.396Z,14.23
2024-03-16T03:36:20.990Z,15.10
2024-03-16T03:38:47.892Z,13.35
2024-03-16T03:41:14.518Z,15.07
2024-03-16T03:43:41.442Z,16.75
2024-03-16T03:46:14.444Z,15.02
2024-03-16T03:48:50.956Z,15.77
2024-03-16T03:51:17.613Z,15.65
2024-03-16T03:53:44.595Z,17.63
2024-03-16T03:56:11.888Z,16.63
2024-03-16T03:58:38.553Z,16.90
2024-03-16T04:01:05.215Z,16.30
2024-03-16T04:03:31.897Z,18.08
2024-03-16T04:05:59.696Z,17.92
2024-03-16T04:08:26.346Z,19.20
2024-03-16T04:10:52.938Z,17.00
2024-03-16T04:13:19.524Z,18.80
2024-03-16T04:15:46.248Z,17.75
2024-03-16T04:18:12.938Z,19.95
2024-03-16T04:20:39.783Z,17.50
2024-03-16T04:23:08.128Z,18.55
2024-03-16T04:25:35.044Z,18.52
2024-03-16T04:28:01.668Z,17.65
2024-03-16T04:30:28.341Z,15.18
2024-03-16T04:32:54.985Z,16.30
2024-03-16T04:35:21.611Z,16.15
2024-03-16T04:37:48.182Z,14.98
2024-03-16T04:40:14.855Z,15.75
2024-03-16T04:42:42.710Z,13.50
2024-03-16T04:45:09.358Z,14.05
2024-03-16T04:47:35.990Z,13.48
2024-03-16T04:50:02.671Z,14.65
2024-03-16T04:52:29.320Z,15.77
2024-03-16T04:54:55.886Z,14.13
2024-03-16T04:57:22.577Z,15.13
2024-03-16T04:59:49.178Z,13.32
2024-03-16T05:02:15.769Z,15.88
2024-03-16T05:04:42.331Z,14.38
2024-03-16T05:07:09.032Z,16.98
2024-03-16T05:09:37.606Z,15.18
2024-03-16T05:12:04.613Z,17.50
2024-03-16T05:14:32.844Z,14.82
2024-03-16T05:16:59.401Z,15.05
2024-03-16T05:19:26.901Z,16.55
2024-03-16T05:21:53.528Z,16.80
2024-03-16T05:24:20.153Z,17.63
2024-03-16T05:26:46.817Z,18.48
2024-03-16T05:29:13.351Z,10.85
2024-03-16T05:31:39.849Z,6.68
2024-03-16T05:34:06.649Z,7.35
2024-03-16T05:36:33.314Z,4.57
2024-03-16T05:39:00.775Z,4.60
2024-03-16T05:41:27.320Z,6.30
2024-03-16T05:43:54.330Z,6.68
2024-03-16T05:46:21.192Z,5.72
2024-03-16T05:48:47.788Z,5.55
2024-03-16T05:51:14.342Z,5.30
2024-03-16T05:53:41.556Z,6.10
2024-03-16T05:56:08.185Z,5.70
2024-03-16T05:58:34.760Z,4.95
2024-03-16T06:01:02.439Z,6.95
2024-03-16T06:03:30.006Z,5.55
2024-03-16T06:05:56.701Z,5.25
2024-03-16T06:08:23.306Z,5.85
2024-03-16T06:10:49.884Z,6.05
2024-03-16T06:13:16.736Z,5.05
2024-03-16T06:15:43.427Z,5.78
2024-03-16T06:18:10.345Z,7.22
2024-03-16T06:20:37.025Z,7.30
2024-03-16T06:23:03.743Z,8.25
2024-03-16T06:25:36.806Z,7.90
2024-03-16T06:28:12.225Z,8.57
2024-03-16T06:30:38.942Z,8.67
2024-03-16T06:33:11.805Z,10.30
2024-03-16T06:35:38.855Z,10.27
2024-03-16T06:38:05.563Z,7.45
2024-03-16T06:40:32.159Z,10.38
2024-03-16T06:42:58.778Z,9.00
2024-03-16T06:45:25.471Z,10.38
2024-03-16T06:47:52.323Z,7.63
2024-03-16T06:50:19.001Z,9.07
2024-03-16T06:52:46.470Z,9.18
2024-03-16T06:55:14.444Z,8.65
2024-03-16T06:57:41.179Z,7.00
2024-03-16T07:00:10.330Z,6.93
2024-03-16T07:02:36.911Z,10.90
2024-03-16T07:05:03.984Z,9.38
2024-03-16T07:07:31.366Z,10.25
2024-03-16T07:09:59.011Z,7.18
2024-03-16T07:12:25.660Z,8.45
2024-03-16T07:14:52.206Z,4.78
2024-03-16T07:17:18.761Z,5.35
2024-03-16T07:19:45.416Z,5.63
2024-03-16T07:22:13.791Z,6.05
2024-03-16T07:24:40.340Z,6.38
2024-03-16T07:27:08.326Z,4.93
2024-03-16T07:29:34.958Z,5.97
2024-03-16T07:32:01.544Z,5.25
2024-03-16T07:34:28.126Z,4.57
2024-03-16T07:36:54.804Z,3.10
2024-03-16T07:39:22.261Z,5.10
2024-03-16T07:41:50.609Z,3.47
2024-03-16T07:44:18.413Z,6.32
2024-03-16T07:46:47.931Z,5.20
2024-03-16T07:49:14.535Z,4.82
2024-03-16T07:51:44.211Z,6.03
2024-03-16T07:54:13.485Z,5.72
2024-03-16T07:56:41.007Z,6.13
2024-03-16T07:59:10.484Z,7.40
2024-03-16T08:01:37.827Z,5.90
2024-03-16T08:04:05.110Z,6.25
2024-03-16T08:06:31.835Z,7.63
2024-03-16T08:08:58.468Z,7.70
2024-03-16T08:11:25.137Z,7.45
2024-03-16T08:13:51.736Z,7.05
2024-03-16T08:16:18.406Z,6.57
2024-03-16T08:18:47.028Z,6.10
2024-03-16T08:21:15.816Z,6.47
2024-03-16T08:23:43.160Z,5.88
2024-03-16T08:26:10.473Z,5.10
2024-03-16T08:28:37.588Z,4.22
2024-03-16T08:31:06.221Z,4.78
2024-03-16T08:33:33.166Z,4.03
2024-03-16T08:35:59.899Z,3.80
2024-03-16T08:38:26.854Z,4.07
2024-03-16T08:40:53.779Z,3.35
2024-03-16T08:43:20.468Z,2.60
2024-03-16T08:45:47.811Z,4.05
2024-03-16T08:48:14.447Z,2.88
2024-03-16T08:50:41.075Z,2.97
2024-03-16T08:53:07.796Z,2.40
2024-03-16T08:55:34.533Z,2.33
2024-03-16T08:58:01.306Z,2.05
2024-03-16T09:00:28.090Z,2.25
2024-03-16T09:02:54.634Z,2.00
2024-03-16T09:05:22.298Z,2.20
2024-03-16T09:07:48.904Z,1.77
2024-03-16T09:10:16.217Z,2.15
2024-03-16T09:12:42.905Z,1.80
2024-03-16T09:15:10.056Z,2.17
2024-03-16T09:17:37.620Z,1.80
2024-03-16T09:20:12.140Z,1.83
2024-03-16T09:22:39.202Z,1.42
2024-03-16T09:25:09.892Z,1.90
2024-03-16T09:27:37.126Z,1.50
2024-03-16T09:30:09.713Z,1.70
2024-03-16T09:32:37.904Z,2.03
2024-03-16T09:35:11.444Z,1.80
2024-03-16T09:37:38.155Z,1.42
2024-03-16T09:40:12.410Z,2.30
2024-03-16T09:42:40.076Z,1.75
